sensor_id;sensor_type;location;lat;lon;timestamp;pressure;altitude;pressure_sealevel;temperature;humidity
63568;BME280;49715;42.386;20.434;2023-02-14T00:01:17;99036.66;;;-0.38;51.61
63568;BME280;49715;42.386;20.434;2023-02-14T00:03:43;99034.22;;;-0.42;51.39
63568;BME280;49715;42.386;20.434;2023-02-14T00:06:11;99040.31;;;-0.45;52.12
63568;BME280;49715;42.386;20.434;2023-02-14T00:08:37;99037.84;;;-0.49;51.72
63568;BME280;49715;42.386;20.434;2023-02-14T00:11:06;99034.47;;;-0.52;51.98
63568;BME280;49715;42.386;20.434;2023-02-14T00:13:35;99036.34;;;-0.57;51.67
63568;BME280;49715;42.386;20.434;2023-02-14T00:16:01;99041.63;;;-0.61;52.28
63568;BME280;49715;42.386;20.434;2023-02-14T00:18:28;99041.72;;;-0.64;52.17
63568;BME280;49715;42.386;20.434;2023-02-14T00:21:28;99036.66;;;-0.69;52.13
63568;BME280;49715;42.386;20.434;2023-02-14T00:23:54;99034.06;;;-0.69;52.50
63568;BME280;49715;42.386;20.434;2023-02-14T00:26:20;99048.72;;;-0.68;52.09
63568;BME280;49715;42.386;20.434;2023-02-14T00:28:46;99041.81;;;-0.69;52.21
63568;BME280;49715;42.386;20.434;2023-02-14T00:31:13;99034.97;;;-0.70;52.04
63568;BME280;49715;42.386;20.434;2023-02-14T00:33:39;99036.63;;;-0.67;52.52
63568;BME280;49715;42.386;20.434;2023-02-14T00:36:05;99035.72;;;-0.66;52.42
63568;BME280;49715;42.386;20.434;2023-02-14T00:38:33;99034.88;;;-0.67;52.26
63568;BME280;49715;42.386;20.434;2023-02-14T00:40:59;99030.63;;;-0.69;52.26
63568;BME280;49715;42.386;20.434;2023-02-14T00:43:26;99034.97;;;-0.70;51.77
63568;BME280;49715;42.386;20.434;2023-02-14T00:45:53;99033.31;;;-0.72;52.10
63568;BME280;49715;42.386;20.434;2023-02-14T00:48:19;99033.31;;;-0.72;52.09
63568;BME280;49715;42.386;20.434;2023-02-14T00:50:45;99027.31;;;-0.74;52.29
63568;BME280;49715;42.386;20.434;2023-02-14T00:53:12;99026.53;;;-0.76;51.90
63568;BME280;49715;42.386;20.434;2023-02-14T00:55:38;99026.63;;;-0.81;52.06
63568;BME280;49715;42.386;20.434;2023-02-14T00:58:07;99025.91;;;-0.86;52.15
63568;BME280;49715;42.386;20.434;2023-02-14T01:00:33;99022.63;;;-0.93;52.03
63568;BME280;49715;42.386;20.434;2023-02-14T01:03:00;99021.03;;;-0.98;52.21
63568;BME280;49715;42.386;20.434;2023-02-14T01:05:27;99021.16;;;-1.03;52.50
63568;BME280;49715;42.386;20.434;2023-02-14T01:07:53;99020.41;;;-1.07;52.71
63568;BME280;49715;42.386;20.434;2023-02-14T01:10:20;99035.09;;;-1.07;52.72
63568;BME280;49715;42.386;20.434;2023-02-14T01:12:47;99036.84;;;-1.09;52.87
63568;BME280;49715;42.386;20.434;2023-02-14T01:15:13;99034.38;;;-1.12;52.88
63568;BME280;49715;42.386;20.434;2023-02-14T01:17:39;99034.44;;;-1.15;52.52
63568;BME280;49715;42.386;20.434;2023-02-14T01:20:05;99034.53;;;-1.20;52.16
63568;BME280;49715;42.386;20.434;2023-02-14T01:22:34;99036.47;;;-1.28;51.83
63568;BME280;49715;42.386;20.434;2023-02-14T01:25:01;99036.66;;;-1.36;53.69
63568;BME280;49715;42.386;20.434;2023-02-14T01:27:28;99028.97;;;-1.39;53.42
63568;BME280;49715;42.386;20.434;2023-02-14T01:29:55;99026.44;;;-1.40;53.71
63568;BME280;49715;42.386;20.434;2023-02-14T01:32:21;99018.56;;;-1.37;53.50
63568;BME280;49715;42.386;20.434;2023-02-14T01:34:49;99028.81;;;-1.33;53.65
63568;BME280;49715;42.386;20.434;2023-02-14T01:37:16;99023.53;;;-1.28;53.78
63568;BME280;49715;42.386;20.434;2023-02-14T01:39:43;99026.06;;;-1.25;53.21
63568;BME280;49715;42.386;20.434;2023-02-14T01:42:13;99025.16;;;-1.24;53.38
63568;BME280;49715;42.386;20.434;2023-02-14T01:47:06;99030.28;;;-1.22;53.42
63568;BME280;49715;42.386;20.434;2023-02-14T01:49:36;99028.44;;;-1.17;53.73
63568;BME280;49715;42.386;20.434;2023-02-14T01:54:29;99026.59;;;-1.12;53.23
63568;BME280;49715;42.386;20.434;2023-02-14T01:56:57;99021.34;;;-1.09;53.50
63568;BME280;49715;42.386;20.434;2023-02-14T01:59:27;99024.59;;;-1.02;53.53
63568;BME280;49715;42.386;20.434;2023-02-14T02:01:54;99021.03;;;-0.97;53.22
63568;BME280;49715;42.386;20.434;2023-02-14T02:04:21;99015.84;;;-0.97;53.38
63568;BME280;49715;42.386;20.434;2023-02-14T02:06:50;99017.53;;;-0.96;53.12
63568;BME280;49715;42.386;20.434;2023-02-14T02:09:20;99014.00;;;-0.93;52.99
63568;BME280;49715;42.386;20.434;2023-02-14T02:11:50;99007.13;;;-0.94;53.59
63568;BME280;49715;42.386;20.434;2023-02-14T02:14:17;99005.41;;;-0.94;53.04
63568;BME280;49715;42.386;20.434;2023-02-14T02:17:09;99005.38;;;-0.92;52.80
63568;BME280;49715;42.386;20.434;2023-02-14T02:19:41;98995.88;;;-0.93;52.97
63568;BME280;49715;42.386;20.434;2023-02-14T02:27:29;99002.75;;;-0.91;53.57
63568;BME280;49715;42.386;20.434;2023-02-14T02:48:30;98948.28;;;-1.19;53.27
63568;BME280;49715;42.386;20.434;2023-02-14T02:50:59;98967.94;;;-1.13;53.47
63568;BME280;49715;42.386;20.434;2023-02-14T02:53:47;98977.56;;;-1.18;53.67
63568;BME280;49715;42.386;20.434;2023-02-14T02:56:22;98972.50;;;-1.21;53.83
63568;BME280;49715;42.386;20.434;2023-02-14T02:59:09;98970.75;;;-1.21;53.50
63568;BME280;49715;42.386;20.434;2023-02-14T03:04:31;98956.03;;;-1.19;53.44
63568;BME280;49715;42.386;20.434;2023-02-14T03:07:16;98956.88;;;-1.18;53.50
63568;BME280;49715;42.386;20.434;2023-02-14T03:15:06;98967.22;;;-1.18;53.85
63568;BME280;49715;42.386;20.434;2023-02-14T03:17:47;98975.75;;;-1.15;53.91
63568;BME280;49715;42.386;20.434;2023-02-14T03:20:29;98976.56;;;-1.13;53.80
63568;BME280;49715;42.386;20.434;2023-02-14T03:25:46;98997.31;;;-1.14;53.90
63568;BME280;49715;42.386;20.434;2023-02-14T03:28:19;98996.66;;;-1.22;53.44
63568;BME280;49715;42.386;20.434;2023-02-14T03:30:57;98991.69;;;-1.30;53.88
63568;BME280;49715;42.386;20.434;2023-02-14T03:33:31;99001.31;;;-1.35;53.61
63568;BME280;49715;42.386;20.434;2023-02-14T03:38:32;98996.31;;;-1.43;53.67
63568;BME280;49715;42.386;20.434;2023-02-14T03:41:05;98989.50;;;-1.47;53.61
63568;BME280;49715;42.386;20.434;2023-02-14T03:43:41;98993.88;;;-1.49;52.80
63568;BME280;49715;42.386;20.434;2023-02-14T03:46:17;98990.50;;;-1.52;53.74
63568;BME280;49715;42.386;20.434;2023-02-14T03:48:44;98996.56;;;-1.53;54.18
63568;BME280;49715;42.386;20.434;2023-02-14T03:51:12;98996.63;;;-1.55;54.31
63568;BME280;49715;42.386;20.434;2023-02-14T03:53:41;99000.13;;;-1.58;54.63
63568;BME280;49715;42.386;20.434;2023-02-14T03:56:11;98991.50;;;-1.58;54.41
63568;BME280;49715;42.386;20.434;2023-02-14T03:58:40;98977.75;;;-1.59;55.48
63568;BME280;49715;42.386;20.434;2023-02-14T04:03:44;98983.91;;;-1.64;53.78
63568;BME280;49715;42.386;20.434;2023-02-14T04:06:11;98992.56;;;-1.65;54.01
63568;BME280;49715;42.386;20.434;2023-02-14T04:08:37;98977.91;;;-1.66;53.79
63568;BME280;49715;42.386;20.434;2023-02-14T04:11:04;98982.22;;;-1.65;53.77
63568;BME280;49715;42.386;20.434;2023-02-14T04:13:30;98993.44;;;-1.66;53.44
63568;BME280;49715;42.386;20.434;2023-02-14T04:15:56;98996.16;;;-1.72;53.95
63568;BME280;49715;42.386;20.434;2023-02-14T04:18:23;99003.38;;;-1.85;54.05
63568;BME280;49715;42.386;20.434;2023-02-14T04:21:08;99001.94;;;-1.98;54.26
63568;BME280;49715;42.386;20.434;2023-02-14T04:23:34;99008.22;;;-2.10;54.77
63568;BME280;49715;42.386;20.434;2023-02-14T04:26:00;98976.56;;;-2.20;54.68
63568;BME280;49715;42.386;20.434;2023-02-14T04:28:28;98962.91;;;-2.25;54.48
63568;BME280;49715;42.386;20.434;2023-02-14T04:30:55;98975.91;;;-2.28;54.53
63568;BME280;49715;42.386;20.434;2023-02-14T04:33:21;98972.56;;;-2.33;53.84
63568;BME280;49715;42.386;20.434;2023-02-14T04:35:47;98960.72;;;-2.42;53.94
63568;BME280;49715;42.386;20.434;2023-02-14T04:38:13;98956.59;;;-2.50;54.47
63568;BME280;49715;42.386;20.434;2023-02-14T04:40:39;98954.19;;;-2.58;54.52
63568;BME280;49715;42.386;20.434;2023-02-14T04:43:06;98949.13;;;-2.64;54.27
63568;BME280;49715;42.386;20.434;2023-02-14T04:45:33;98947.56;;;-2.71;54.73
63568;BME280;49715;42.386;20.434;2023-02-14T04:47:59;98939.91;;;-2.76;55.20
63568;BME280;49715;42.386;20.434;2023-02-14T04:50:25;98941.59;;;-2.75;55.73
63568;BME280;49715;42.386;20.434;2023-02-14T04:52:52;98950.19;;;-2.74;55.09
63568;BME280;49715;42.386;20.434;2023-02-14T04:55:18;98952.72;;;-2.71;55.35
63568;BME280;49715;42.386;20.434;2023-02-14T04:57:44;98957.84;;;-2.68;55.01
63568;BME280;49715;42.386;20.434;2023-02-14T05:00:10;98955.13;;;-2.64;55.42
63568;BME280;49715;42.386;20.434;2023-02-14T05:02:37;98966.28;;;-2.62;55.84
63568;BME280;49715;42.386;20.434;2023-02-14T05:05:03;98958.63;;;-2.66;55.81
63568;BME280;49715;42.386;20.434;2023-02-14T05:07:29;98952.59;;;-2.65;55.38
63568;BME280;49715;42.386;20.434;2023-02-14T05:09:55;98941.56;;;-2.73;55.27
63568;BME280;49715;42.386;20.434;2023-02-14T05:12:22;98956.00;;;-2.65;56.01
63568;BME280;49715;42.386;20.434;2023-02-14T05:14:48;98942.34;;;-2.68;55.01
63568;BME280;49715;42.386;20.434;2023-02-14T05:17:14;98957.59;;;-2.57;55.07
63568;BME280;49715;42.386;20.434;2023-02-14T05:19:40;98954.97;;;-2.56;55.08
63568;BME280;49715;42.386;20.434;2023-02-14T05:22:06;98952.34;;;-2.54;55.09
63568;BME280;49715;42.386;20.434;2023-02-14T05:24:32;98951.50;;;-2.53;54.00
63568;BME280;49715;42.386;20.434;2023-02-14T05:26:59;98953.16;;;-2.51;55.42
63568;BME280;49715;42.386;20.434;2023-02-14T05:29:25;98947.94;;;-2.48;55.54
63568;BME280;49715;42.386;20.434;2023-02-14T05:31:52;98946.91;;;-2.41;54.63
63568;BME280;49715;42.386;20.434;2023-02-14T05:34:18;98945.06;;;-2.36;54.16
63568;BME280;49715;42.386;20.434;2023-02-14T05:36:44;98944.94;;;-2.29;54.43
63568;BME280;49715;42.386;20.434;2023-02-14T05:39:10;98941.38;;;-2.24;54.70
63568;BME280;49715;42.386;20.434;2023-02-14T05:41:39;98950.78;;;-2.21;54.73
63568;BME280;49715;42.386;20.434;2023-02-14T05:44:06;98944.66;;;-2.17;54.95
63568;BME280;49715;42.386;20.434;2023-02-14T05:46:32;98944.59;;;-2.14;54.85
63568;BME280;49715;42.386;20.434;2023-02-14T05:48:58;98944.53;;;-2.11;54.46
63568;BME280;49715;42.386;20.434;2023-02-14T05:51:24;98954.84;;;-2.10;54.45
63568;BME280;49715;42.386;20.434;2023-02-14T05:53:52;98962.53;;;-2.08;54.36
63568;BME280;49715;42.386;20.434;2023-02-14T05:56:18;98972.84;;;-2.07;54.31
63568;BME280;49715;42.386;20.434;2023-02-14T05:58:44;98965.13;;;-2.08;54.62
63568;BME280;49715;42.386;20.434;2023-02-14T06:01:10;98958.28;;;-2.11;54.36
63568;BME280;49715;42.386;20.434;2023-02-14T06:03:36;98957.44;;;-2.11;54.46
63568;BME280;49715;42.386;20.434;2023-02-14T06:06:03;98958.28;;;-2.09;54.52
63568;BME280;49715;42.386;20.434;2023-02-14T06:08:29;98952.22;;;-2.08;54.21
63568;BME280;49715;42.386;20.434;2023-02-14T06:10:55;98957.44;;;-2.10;54.63
63568;BME280;49715;42.386;20.434;2023-02-14T06:13:21;98956.53;;;-2.10;54.26
63568;BME280;49715;42.386;20.434;2023-02-14T06:15:49;98958.34;;;-2.12;54.63
63568;BME280;49715;42.386;20.434;2023-02-14T06:18:15;98967.88;;;-2.16;55.37
63568;BME280;49715;42.386;20.434;2023-02-14T06:20:42;98973.88;;;-2.15;54.63
63568;BME280;49715;42.386;20.434;2023-02-14T06:23:08;98960.97;;;-2.15;55.44
63568;BME280;49715;42.386;20.434;2023-02-14T06:25:34;98970.41;;;-2.13;54.79
63568;BME280;49715;42.386;20.434;2023-02-14T06:28:00;98965.13;;;-2.08;54.58
63568;BME280;49715;42.386;20.434;2023-02-14T06:30:26;98965.94;;;-2.06;54.72
63568;BME280;49715;42.386;20.434;2023-02-14T06:32:53;98965.88;;;-2.03;55.14
63568;BME280;49715;42.386;20.434;2023-02-14T06:35:19;98965.66;;;-1.94;55.41
63568;BME280;49715;42.386;20.434;2023-02-14T06:37:45;98953.44;;;-1.87;54.89
63568;BME280;49715;42.386;20.434;2023-02-14T06:40:12;98958.44;;;-1.79;54.63
63568;BME280;49715;42.386;20.434;2023-02-14T06:42:39;98957.44;;;-1.74;54.73
63568;BME280;49715;42.386;20.434;2023-02-14T06:45:05;98949.53;;;-1.68;55.01
63568;BME280;49715;42.386;20.434;2023-02-14T06:47:32;98946.72;;;-1.59;55.09
63568;BME280;49715;42.386;20.434;2023-02-14T06:49:59;98946.53;;;-1.51;54.97
63568;BME280;49715;42.386;20.434;2023-02-14T06:52:39;98931.03;;;-1.51;54.27
63568;BME280;49715;42.386;20.434;2023-02-14T06:55:07;98950.38;;;-1.33;54.32
63568;BME280;49715;42.386;20.434;2023-02-14T06:57:35;98949.22;;;-1.21;54.64
63568;BME280;49715;42.386;20.434;2023-02-14T07:00:02;98944.66;;;-1.13;55.05
63568;BME280;49715;42.386;20.434;2023-02-14T07:02:32;98953.88;;;-1.03;54.39
63568;BME280;49715;42.386;20.434;2023-02-14T07:04:59;98951.94;;;-0.95;53.85
63568;BME280;49715;42.386;20.434;2023-02-14T07:07:25;98950.84;;;-0.86;54.07
63568;BME280;49715;42.386;20.434;2023-02-14T07:09:52;98946.38;;;-0.81;53.59
63568;BME280;49715;42.386;20.434;2023-02-14T07:12:19;98951.44;;;-0.76;53.15
63568;BME280;49715;42.386;20.434;2023-02-14T07:14:45;98953.06;;;-0.72;53.99
63568;BME280;49715;42.386;20.434;2023-02-14T07:17:12;98944.44;;;-0.73;53.62
63568;BME280;49715;42.386;20.434;2023-02-14T07:19:38;98960.63;;;-0.66;53.73
63568;BME280;49715;42.386;20.434;2023-02-14T07:22:07;98950.09;;;-0.60;53.67
63568;BME280;49715;42.386;20.434;2023-02-14T07:24:34;98952.38;;;-0.49;53.85
63568;BME280;49715;42.386;20.434;2023-02-14T07:27:00;98953.78;;;-0.38;53.83
63568;BME280;49715;42.386;20.434;2023-02-14T07:29:26;98945.72;;;-0.29;53.51
63568;BME280;49715;42.386;20.434;2023-02-14T07:31:53;98938.66;;;-0.23;53.83
63568;BME280;49715;42.386;20.434;2023-02-14T07:34:25;98933.22;;;-0.16;53.80
63568;BME280;49715;42.386;20.434;2023-02-14T07:36:53;98927.69;;;-0.05;53.95
63568;BME280;49715;42.386;20.434;2023-02-14T07:39:22;98929.88;;;0.09;53.61
63568;BME280;49715;42.386;20.434;2023-02-14T07:41:51;98938.06;;;0.23;53.70
63568;BME280;49715;42.386;20.434;2023-02-14T07:44:22;98936.81;;;0.35;53.48
63568;BME280;49715;42.386;20.434;2023-02-14T07:46:50;98934.81;;;0.43;53.04
63568;BME280;49715;42.386;20.434;2023-02-14T07:49:17;98924.25;;;0.49;53.11
63568;BME280;49715;42.386;20.434;2023-02-14T07:51:44;98927.47;;;0.56;52.95
63568;BME280;49715;42.386;20.434;2023-02-14T07:54:24;98924.66;;;0.62;52.65
63568;BME280;49715;42.386;20.434;2023-02-14T07:56:52;98933.88;;;0.70;52.88
63568;BME280;49715;42.386;20.434;2023-02-14T07:59:27;98921.50;;;0.79;52.77
63568;BME280;49715;42.386;20.434;2023-02-14T08:01:53;98922.06;;;0.87;52.76
63568;BME280;49715;42.386;20.434;2023-02-14T08:04:20;98921.88;;;0.93;52.69
63568;BME280;49715;42.386;20.434;2023-02-14T08:06:52;98915.53;;;1.00;53.01
63568;BME280;49715;42.386;20.434;2023-02-14T08:09:20;98923.06;;;1.08;54.43
63568;BME280;49715;42.386;20.434;2023-02-14T08:11:53;98911.53;;;1.15;52.80
63568;BME280;49715;42.386;20.434;2023-02-14T08:14:42;98905.94;;;1.25;52.82
63568;BME280;49715;42.386;20.434;2023-02-14T08:17:13;98909.72;;;1.40;53.05
63568;BME280;49715;42.386;20.434;2023-02-14T08:19:42;98902.44;;;1.50;53.81
63568;BME280;49715;42.386;20.434;2023-02-14T08:22:11;98906.50;;;1.57;54.20
63568;BME280;49715;42.386;20.434;2023-02-14T08:24:40;98900.97;;;1.66;52.62
63568;BME280;49715;42.386;20.434;2023-02-14T08:27:07;98900.72;;;1.72;52.64
63568;BME280;49715;42.386;20.434;2023-02-14T08:29:53;98900.38;;;1.82;52.73
63568;BME280;49715;42.386;20.434;2023-02-14T08:32:21;98902.66;;;1.89;51.99
63568;BME280;49715;42.386;20.434;2023-02-14T08:34:53;98898.84;;;1.98;51.34
63568;BME280;49715;42.386;20.434;2023-02-14T08:37:21;98891.13;;;1.96;51.78
63568;BME280;49715;42.386;20.434;2023-02-14T08:39:47;98897.38;;;2.13;51.96
63568;BME280;49715;42.386;20.434;2023-02-14T08:42:14;98895.13;;;2.25;51.79
63568;BME280;49715;42.386;20.434;2023-02-14T08:44:44;98905.09;;;2.36;50.84
63568;BME280;49715;42.386;20.434;2023-02-14T08:47:12;98904.84;;;2.42;51.34
63568;BME280;49715;42.386;20.434;2023-02-14T08:49:39;98906.13;;;2.52;51.53
63568;BME280;49715;42.386;20.434;2023-02-14T08:52:06;98906.41;;;2.67;50.63
63568;BME280;49715;42.386;20.434;2023-02-14T08:54:33;98915.47;;;2.78;51.45
63568;BME280;49715;42.386;20.434;2023-02-14T08:57:04;98911.28;;;2.95;51.12
63568;BME280;49715;42.386;20.434;2023-02-14T08:59:31;98913.13;;;3.12;50.64
63568;BME280;49715;42.386;20.434;2023-02-14T09:02:00;98911.81;;;3.22;50.32
63568;BME280;49715;42.386;20.434;2023-02-14T09:05:04;98916.59;;;3.31;50.69
63568;BME280;49715;42.386;20.434;2023-02-14T09:07:33;98911.56;;;3.47;50.48
63568;BME280;49715;42.386;20.434;2023-02-14T09:09:59;98904.09;;;3.58;50.69
63568;BME280;49715;42.386;20.434;2023-02-14T09:12:31;98898.16;;;3.73;50.27
63568;BME280;49715;42.386;20.434;2023-02-14T09:14:57;98892.22;;;3.88;50.22
63568;BME280;49715;42.386;20.434;2023-02-14T09:17:23;98887.94;;;4.05;49.96
63568;BME280;49715;42.386;20.434;2023-02-14T09:19:50;98883.59;;;4.23;49.55
63568;BME280;49715;42.386;20.434;2023-02-14T09:22:17;98888.06;;;4.38;49.49
63568;BME280;49715;42.386;20.434;2023-02-14T09:24:44;98891.22;;;4.45;49.38
63568;BME280;49715;42.386;20.434;2023-02-14T09:27:11;98894.38;;;4.51;49.34
63568;BME280;49715;42.386;20.434;2023-02-14T09:29:37;98899.22;;;4.59;49.64
63568;BME280;49715;42.386;20.434;2023-02-14T09:32:03;98903.88;;;4.70;49.45
63568;BME280;49715;42.386;20.434;2023-02-14T09:34:31;98898.88;;;4.82;49.13
63568;BME280;49715;42.386;20.434;2023-02-14T09:36:58;98912.06;;;4.97;48.86
63568;BME280;49715;42.386;20.434;2023-02-14T09:39:24;98912.03;;;5.14;48.88
63568;BME280;49715;42.386;20.434;2023-02-14T09:41:53;98918.16;;;5.30;48.53
63568;BME280;49715;42.386;20.434;2023-02-14T09:46:56;98915.06;;;5.55;48.19
63568;BME280;49715;42.386;20.434;2023-02-14T09:49:33;98900.31;;;5.70;48.11
63568;BME280;49715;42.386;20.434;2023-02-14T09:52:01;98890.44;;;5.75;47.68
63568;BME280;49715;42.386;20.434;2023-02-14T09:54:28;98891.34;;;5.90;47.75
63568;BME280;49715;42.386;20.434;2023-02-14T09:56:56;98883.13;;;5.98;47.73
63568;BME280;49715;42.386;20.434;2023-02-14T10:04:40;98871.13;;;6.39;46.97
63568;BME280;49715;42.386;20.434;2023-02-14T10:07:15;98865.84;;;6.55;46.79
63568;BME280;49715;42.386;20.434;2023-02-14T10:12:33;98859.31;;;6.91;46.46
63568;BME280;49715;42.386;20.434;2023-02-14T10:15:03;98853.97;;;7.07;46.51
63568;BME280;49715;42.386;20.434;2023-02-14T10:20:00;98846.03;;;7.22;45.91
63568;BME280;49715;42.386;20.434;2023-02-14T10:22:34;98852.47;;;7.31;45.86
63568;BME280;49715;42.386;20.434;2023-02-14T10:25:13;98846.66;;;7.40;45.74
63568;BME280;49715;42.386;20.434;2023-02-14T10:27:43;98849.66;;;7.48;45.70
63568;BME280;49715;42.386;20.434;2023-02-14T10:30:14;98843.91;;;7.56;45.67
63568;BME280;49715;42.386;20.434;2023-02-14T10:38:17;98838.28;;;7.89;44.89
63568;BME280;49715;42.386;20.434;2023-02-14T10:40:48;98829.94;;;8.10;44.97
63568;BME280;49715;42.386;20.434;2023-02-14T10:51:13;98816.84;;;8.75;44.30
63568;BME280;49715;42.386;20.434;2023-02-14T10:56:12;98792.97;;;8.91;44.28
63568;BME280;49715;42.386;20.434;2023-02-14T10:58:43;98784.22;;;9.03;43.45
63568;BME280;49715;42.386;20.434;2023-02-14T11:01:11;98786.63;;;9.19;43.84
63568;BME280;49715;42.386;20.434;2023-02-14T11:03:39;98775.84;;;9.35;43.48
63568;BME280;49715;42.386;20.434;2023-02-14T11:06:09;98771.03;;;9.52;42.80
63568;BME280;49715;42.386;20.434;2023-02-14T11:08:39;98767.03;;;9.71;42.70
63568;BME280;49715;42.386;20.434;2023-02-14T11:11:19;98769.16;;;9.90;42.52
63568;BME280;49715;42.386;20.434;2023-02-14T11:13:47;98767.69;;;10.10;42.75
63568;BME280;49715;42.386;20.434;2023-02-14T11:16:18;98761.50;;;10.22;42.23
63568;BME280;49715;42.386;20.434;2023-02-14T11:18:47;98747.53;;;10.32;41.52
63568;BME280;49715;42.386;20.434;2023-02-14T11:21:38;98746.50;;;10.46;41.14
63568;BME280;49715;42.386;20.434;2023-02-14T11:26:50;98737.28;;;10.63;41.27
63568;BME280;49715;42.386;20.434;2023-02-14T11:29:28;98732.13;;;10.73;41.28
63568;BME280;49715;42.386;20.434;2023-02-14T11:31:55;98724.34;;;10.82;39.74
63568;BME280;49715;42.386;20.434;2023-02-14T11:34:34;98711.16;;;10.94;40.72
63568;BME280;49715;42.386;20.434;2023-02-14T11:37:02;98678.91;;;10.90;40.86
63568;BME280;49715;42.386;20.434;2023-02-14T11:39:30;98703.78;;;11.20;41.08
63568;BME280;49715;42.386;20.434;2023-02-14T11:41:58;98693.78;;;11.34;40.34
63568;BME280;49715;42.386;20.434;2023-02-14T11:44:27;98685.81;;;11.57;40.88
63568;BME280;49715;42.386;20.434;2023-02-14T11:46:55;98690.28;;;11.77;39.86
63568;BME280;49715;42.386;20.434;2023-02-14T11:51:56;98686.84;;;11.98;38.78
63568;BME280;49715;42.386;20.434;2023-02-14T11:54:26;98685.78;;;12.10;38.72
63568;BME280;49715;42.386;20.434;2023-02-14T11:57:00;98671.56;;;12.22;39.06
63568;BME280;49715;42.386;20.434;2023-02-14T11:59:32;98671.63;;;12.32;38.47
63568;BME280;49715;42.386;20.434;2023-02-14T12:02:02;98677.81;;;12.52;38.78
63568;BME280;49715;42.386;20.434;2023-02-14T12:04:30;98665.22;;;12.65;39.68
63568;BME280;49715;42.386;20.434;2023-02-14T12:07:14;98670.16;;;12.79;39.77
63568;BME280;49715;42.386;20.434;2023-02-14T12:09:41;98676.31;;;12.89;38.42
63568;BME280;49715;42.386;20.434;2023-02-14T12:12:16;98674.66;;;12.98;39.81
63568;BME280;49715;42.386;20.434;2023-02-14T12:14:42;98671.59;;;13.03;38.76
63568;BME280;49715;42.386;20.434;2023-02-14T12:22:31;98661.38;;;13.29;38.16
63568;BME280;49715;42.386;20.434;2023-02-14T12:25:05;98656.38;;;13.45;39.65
63568;BME280;49715;42.386;20.434;2023-02-14T12:27:48;98658.34;;;13.62;38.37
63568;BME280;49715;42.386;20.434;2023-02-14T12:30:19;98653.56;;;13.76;38.65
63568;BME280;49715;42.386;20.434;2023-02-14T12:32:53;98646.75;;;13.83;38.30
63568;BME280;49715;42.386;20.434;2023-02-14T12:38:24;98648.25;;;13.95;36.85
63568;BME280;49715;42.386;20.434;2023-02-14T12:41:00;98644.75;;;13.95;37.13
63568;BME280;49715;42.386;20.434;2023-02-14T12:46:16;98633.16;;;14.05;37.90
63568;BME280;49715;42.386;20.434;2023-02-14T12:56:10;98623.03;;;14.28;37.72
63568;BME280;49715;42.386;20.434;2023-02-14T12:58:45;98620.78;;;14.33;36.55
63568;BME280;49715;42.386;20.434;2023-02-14T13:06:17;98604.28;;;14.49;35.80
63568;BME280;49715;42.386;20.434;2023-02-14T13:09:04;98607.50;;;14.43;38.37
63568;BME280;49715;42.386;20.434;2023-02-14T13:14:09;98604.72;;;14.54;37.28
63568;BME280;49715;42.386;20.434;2023-02-14T13:24:30;98589.09;;;14.97;38.76
63568;BME280;49715;42.386;20.434;2023-02-14T13:27:01;98591.28;;;15.01;37.15
63568;BME280;49715;42.386;20.434;2023-02-14T13:29:33;98594.03;;;15.09;38.83
63568;BME280;49715;42.386;20.434;2023-02-14T13:32:02;98580.44;;;15.12;38.67
63568;BME280;49715;42.386;20.434;2023-02-14T13:34:51;98581.44;;;15.11;38.27
63568;BME280;49715;42.386;20.434;2023-02-14T13:37:21;98579.56;;;15.04;36.22
63568;BME280;49715;42.386;20.434;2023-02-14T13:39:55;98580.97;;;14.98;36.49
63568;BME280;49715;42.386;20.434;2023-02-14T13:45:41;98578.91;;;14.92;38.46
63568;BME280;49715;42.386;20.434;2023-02-14T13:48:05;98574.81;;;14.98;36.68
63568;BME280;49715;42.386;20.434;2023-02-14T13:50:36;98581.38;;;15.03;38.11
63568;BME280;49715;42.386;20.434;2023-02-14T13:53:03;98577.19;;;15.01;37.42
63568;BME280;49715;42.386;20.434;2023-02-14T13:55:34;98573.41;;;15.03;39.94
63568;BME280;49715;42.386;20.434;2023-02-14T13:58:02;98574.38;;;15.02;39.28
63568;BME280;49715;42.386;20.434;2023-02-14T14:03:06;98578.31;;;14.98;39.44
63568;BME280;49715;42.386;20.434;2023-02-14T14:10:49;98567.59;;;14.72;37.93
63568;BME280;49715;42.386;20.434;2023-02-14T14:26:34;98569.06;;;15.02;39.66
63568;BME280;49715;42.386;20.434;2023-02-14T14:29:02;98558.00;;;14.89;39.36
63568;BME280;49715;42.386;20.434;2023-02-14T14:31:36;98562.66;;;14.77;38.25
63568;BME280;49715;42.386;20.434;2023-02-14T14:34:02;98553.97;;;14.57;36.66
63568;BME280;49715;42.386;20.434;2023-02-14T14:36:28;98550.13;;;14.52;38.87
63568;BME280;49715;42.386;20.434;2023-02-14T14:39:00;98554.88;;;14.38;36.45
63568;BME280;49715;42.386;20.434;2023-02-14T14:41:27;98549.50;;;14.30;38.55
63568;BME280;49715;42.386;20.434;2023-02-14T14:43:54;98554.03;;;14.20;38.57
63568;BME280;49715;42.386;20.434;2023-02-14T14:46:23;98553.75;;;14.13;39.08
63568;BME280;49715;42.386;20.434;2023-02-14T14:48:52;98562.00;;;14.10;39.03
63568;BME280;49715;42.386;20.434;2023-02-14T14:51:27;98559.09;;;14.04;38.74
63568;BME280;49715;42.386;20.434;2023-02-14T14:53:57;98568.72;;;13.95;38.12
63568;BME280;49715;42.386;20.434;2023-02-14T14:56:29;98561.50;;;13.87;39.45
63568;BME280;49715;42.386;20.434;2023-02-14T14:59:04;98560.72;;;13.77;38.73
63568;BME280;49715;42.386;20.434;2023-02-14T15:01:45;98563.38;;;13.68;39.28
63568;BME280;49715;42.386;20.434;2023-02-14T15:04:24;98552.34;;;13.72;37.88
63568;BME280;49715;42.386;20.434;2023-02-14T15:06:56;98557.91;;;13.79;39.64
63568;BME280;49715;42.386;20.434;2023-02-14T15:12:00;98566.16;;;13.56;38.32
63568;BME280;49715;42.386;20.434;2023-02-14T15:14:46;98575.00;;;13.37;38.63
63568;BME280;49715;42.386;20.434;2023-02-14T15:17:19;98573.56;;;13.14;38.19
63568;BME280;49715;42.386;20.434;2023-02-14T15:19:47;98577.03;;;12.95;40.99
63568;BME280;49715;42.386;20.434;2023-02-14T15:22:18;98579.59;;;12.66;40.27
63568;BME280;49715;42.386;20.434;2023-02-14T15:24:44;98579.09;;;12.32;39.33